sensor_id;sensor_type;location;lat;lon;timestamp;pressure;altitude;pressure_sealevel;temperature;humidity
69257;BME280;56376;53.356;-1.748;2024-02-28T00:01:59;99704.69;;;3.25;100.00
69257;BME280;56376;53.356;-1.748;2024-02-28T00:04:24;99712.44;;;3.24;100.00
69257;BME280;56376;53.356;-1.748;2024-02-28T00:06:50;99725.34;;;3.22;100.00
69257;BME280;56376;53.356;-1.748;2024-02-28T00:09:15;99730.50;;;3.24;100.00
69257;BME280;56376;53.356;-1.748;2024-02-28T00:11:45;99736.53;;;3.24;100.00
69257;BME280;56376;53.356;-1.748;2024-02-28T00:14:12;99738.25;;;3.27;100.00
69257;BME280;56376;53.356;-1.748;2024-02-28T00:16:44;99739.97;;;3.28;100.00
69257;BME280;56376;53.356;-1.748;2024-02-28T00:19:11;99736.50;;;3.29;100.00
69257;BME280;56376;53.356;-1.748;2024-02-28T00:21:38;99728.75;;;3.32;100.00
69257;BME280;56376;53.356;-1.748;2024-02-28T00:24:04;99727.03;;;3.36;100.00
69257;BME280;56376;53.356;-1.748;2024-02-28T00:26:29;99733.88;;;3.40;100.00
69257;BME280;56376;53.356;-1.748;2024-02-28T00:28:55;99738.22;;;3.41;100.00
69257;BME280;56376;53.356;-1.748;2024-02-28T00:31:21;99742.47;;;3.45;100.00
69257;BME280;56376;53.356;-1.748;2024-02-28T00:33:47;99741.59;;;3.47;100.00
69257;BME280;56376;53.356;-1.748;2024-02-28T00:36:13;99739.91;;;3.48;100.00
69257;BME280;56376;53.356;-1.748;2024-02-28T00:38:39;99733.84;;;3.49;100.00
69257;BME280;56376;53.356;-1.748;2024-02-28T00:41:04;99735.56;;;3.50;100.00
69257;BME280;56376;53.356;-1.748;2024-02-28T00:43:30;99733.88;;;3.51;100.00
69257;BME280;56376;53.356;-1.748;2024-02-28T00:45:55;99733.84;;;3.52;100.00
69257;BME280;56376;53.356;-1.748;2024-02-28T00:48:22;99719.22;;;3.51;100.00
69257;BME280;56376;53.356;-1.748;2024-02-28T00:50:47;99729.53;;;3.56;100.00
69257;BME280;56376;53.356;-1.748;2024-02-28T00:53:13;99727.81;;;3.56;100.00
69257;BME280;56376;53.356;-1.748;2024-02-28T00:55:38;99739.84;;;3.59;100.00
69257;BME280;56376;53.356;-1.748;2024-02-28T00:58:04;99747.59;;;3.59;100.00
69257;BME280;56376;53.356;-1.748;2024-02-28T01:00:29;99757.06;;;3.60;100.00
69257;BME280;56376;53.356;-1.748;2024-02-28T01:02:55;99756.19;;;3.59;100.00
69257;BME280;56376;53.356;-1.748;2024-02-28T01:05:21;99759.66;;;3.58;100.00
69257;BME280;56376;53.356;-1.748;2024-02-28T01:07:46;99742.41;;;3.62;100.00
69257;BME280;56376;53.356;-1.748;2024-02-28T01:10:12;99746.72;;;3.63;100.00
69257;BME280;56376;53.356;-1.748;2024-02-28T01:12:37;99752.75;;;3.63;100.00
69257;BME280;56376;53.356;-1.748;2024-02-28T01:15:03;99769.09;;;3.64;100.00
69257;BME280;56376;53.356;-1.748;2024-02-28T01:17:29;99769.94;;;3.64;100.00
69257;BME280;56376;53.356;-1.748;2024-02-28T01:19:54;99749.31;;;3.60;100.00
69257;BME280;56376;53.356;-1.748;2024-02-28T01:22:20;99771.69;;;3.62;100.00
69257;BME280;56376;53.356;-1.748;2024-02-28T01:24:45;99756.19;;;3.59;100.00
69257;BME280;56376;53.356;-1.748;2024-02-28T01:27:11;99745.84;;;3.58;100.00
69257;BME280;56376;53.356;-1.748;2024-02-28T01:29:36;99745.88;;;3.56;100.00
69257;BME280;56376;53.356;-1.748;2024-02-28T01:32:02;99742.41;;;3.57;100.00
69257;BME280;56376;53.356;-1.748;2024-02-28T01:34:28;99756.22;;;3.55;100.00
69257;BME280;56376;53.356;-1.748;2024-02-28T01:36:53;99748.50;;;3.53;100.00
69257;BME280;56376;53.356;-1.748;2024-02-28T01:39:19;99746.75;;;3.52;100.00
69257;BME280;56376;53.356;-1.748;2024-02-28T01:41:54;99734.72;;;3.51;100.00
69257;BME280;56376;53.356;-1.748;2024-02-28T01:44:20;99735.56;;;3.52;100.00
69257;BME280;56376;53.356;-1.748;2024-02-28T01:46:46;99755.34;;;3.53;100.00
69257;BME280;56376;53.356;-1.748;2024-02-28T01:49:12;99757.94;;;3.53;100.00
69257;BME280;56376;53.356;-1.748;2024-02-28T01:51:38;99756.25;;;3.53;100.00
69257;BME280;56376;53.356;-1.748;2024-02-28T01:54:03;99750.19;;;3.54;100.00
69257;BME280;56376;53.356;-1.748;2024-02-28T01:56:30;99746.75;;;3.54;100.00
69257;BME280;56376;53.356;-1.748;2024-02-28T01:58:56;99751.06;;;3.53;100.00
69257;BME280;56376;53.356;-1.748;2024-02-28T02:01:22;99770.84;;;3.57;100.00
69257;BME280;56376;53.356;-1.748;2024-02-28T02:03:47;99765.69;;;3.59;100.00
69257;BME280;56376;53.356;-1.748;2024-02-28T02:06:14;99740.72;;;3.56;100.00
69257;BME280;56376;53.356;-1.748;2024-02-28T02:08:39;99745.84;;;3.58;100.00
69257;BME280;56376;53.356;-1.748;2024-02-28T02:11:05;99748.44;;;3.58;100.00
69257;BME280;56376;53.356;-1.748;2024-02-28T02:13:34;99760.50;;;3.59;100.00
69257;BME280;56376;53.356;-1.748;2024-02-28T02:16:01;99757.91;;;3.57;100.00
69257;BME280;56376;53.356;-1.748;2024-02-28T02:18:26;99756.19;;;3.58;100.00
69257;BME280;56376;53.356;-1.748;2024-02-28T02:20:56;99738.97;;;3.60;100.00
69257;BME280;56376;53.356;-1.748;2024-02-28T02:23:24;99732.94;;;3.62;100.00
69257;BME280;56376;53.356;-1.748;2024-02-28T02:25:49;99732.09;;;3.63;100.00
69257;BME280;56376;53.356;-1.748;2024-02-28T02:28:15;99737.22;;;3.65;100.00
69257;BME280;56376;53.356;-1.748;2024-02-28T02:30:41;99740.66;;;3.67;100.00
69257;BME280;56376;53.356;-1.748;2024-02-28T02:33:08;99745.81;;;3.67;100.00
69257;BME280;56376;53.356;-1.748;2024-02-28T02:35:34;99746.69;;;3.69;100.00
69257;BME280;56376;53.356;-1.748;2024-02-28T02:38:00;99741.50;;;3.67;100.00
69257;BME280;56376;53.356;-1.748;2024-02-28T02:40:25;99741.53;;;3.69;100.00
69257;BME280;56376;53.356;-1.748;2024-02-28T02:42:51;99716.56;;;3.68;100.00
69257;BME280;56376;53.356;-1.748;2024-02-28T02:45:17;99701.91;;;3.67;100.00
69257;BME280;56376;53.356;-1.748;2024-02-28T02:47:42;99700.19;;;3.67;100.00
69257;BME280;56376;53.356;-1.748;2024-02-28T02:50:09;99720.88;;;3.66;100.00
69257;BME280;56376;53.356;-1.748;2024-02-28T02:52:35;99721.75;;;3.63;100.00
69257;BME280;56376;53.356;-1.748;2024-02-28T02:55:01;99704.53;;;3.61;100.00
69257;BME280;56376;53.356;-1.748;2024-02-28T02:57:26;99706.25;;;3.62;100.00
69257;BME280;56376;53.356;-1.748;2024-02-28T02:59:52;99695.06;;;3.60;100.00
69257;BME280;56376;53.356;-1.748;2024-02-28T03:02:17;99689.88;;;3.61;100.00
69257;BME280;56376;53.356;-1.748;2024-02-28T03:04:43;99685.59;;;3.60;100.00
69257;BME280;56376;53.356;-1.748;2024-02-28T03:07:08;99704.53;;;3.61;100.00
69257;BME280;56376;53.356;-1.748;2024-02-28T03:09:34;99710.59;;;3.58;100.00
69257;BME280;56376;53.356;-1.748;2024-02-28T03:11:59;99720.91;;;3.57;100.00
69257;BME280;56376;53.356;-1.748;2024-02-28T03:14:25;99706.28;;;3.56;100.00
69257;BME280;56376;53.356;-1.748;2024-02-28T03:16:53;99726.09;;;3.54;100.00
69257;BME280;56376;53.356;-1.748;2024-02-28T03:19:19;99722.66;;;3.50;100.00
69257;BME280;56376;53.356;-1.748;2024-02-28T03:21:44;99725.22;;;3.50;100.00
69257;BME280;56376;53.356;-1.748;2024-02-28T03:24:10;99719.22;;;3.46;100.00
69257;BME280;56376;53.356;-1.748;2024-02-28T03:26:35;99721.81;;;3.45;100.00
69257;BME280;56376;53.356;-1.748;2024-02-28T03:29:01;99715.81;;;3.43;100.00
69257;BME280;56376;53.356;-1.748;2024-02-28T03:31:26;99712.38;;;3.41;100.00
69257;BME280;56376;53.356;-1.748;2024-02-28T03:33:52;99699.47;;;3.36;100.00
69257;BME280;56376;53.356;-1.748;2024-02-28T03:36:17;99711.53;;;3.36;100.00
69257;BME280;56376;53.356;-1.748;2024-02-28T03:38:43;99705.50;;;3.32;100.00
69257;BME280;56376;53.356;-1.748;2024-02-28T03:41:09;99711.56;;;3.33;100.00
69257;BME280;56376;53.356;-1.748;2024-02-28T03:43:34;99724.47;;;3.31;100.00
69257;BME280;56376;53.356;-1.748;2024-02-28T03:46:00;99722.75;;;3.32;100.00
69257;BME280;56376;53.356;-1.748;2024-02-28T03:48:26;99723.63;;;3.31;100.00
69257;BME280;56376;53.356;-1.748;2024-02-28T03:50:52;99728.78;;;3.29;100.00
69257;BME280;56376;53.356;-1.748;2024-02-28T03:53:17;99719.28;;;3.30;100.00
69257;BME280;56376;53.356;-1.748;2024-02-28T03:55:43;99710.69;;;3.29;100.00
69257;BME280;56376;53.356;-1.748;2024-02-28T03:58:12;99696.94;;;3.29;100.00
69257;BME280;56376;53.356;-1.748;2024-02-28T04:00:37;99705.56;;;3.28;100.00
69257;BME280;56376;53.356;-1.748;2024-02-28T04:03:04;99706.41;;;3.27;100.00
69257;BME280;56376;53.356;-1.748;2024-02-28T04:05:30;99694.38;;;3.25;100.00
69257;BME280;56376;53.356;-1.748;2024-02-28T04:07:56;99685.78;;;3.23;100.00
69257;BME280;56376;53.356;-1.748;2024-02-28T04:10:21;99680.59;;;3.22;100.00
69257;BME280;56376;53.356;-1.748;2024-02-28T04:12:47;99675.44;;;3.22;100.00
69257;BME280;56376;53.356;-1.748;2024-02-28T04:15:14;99669.41;;;3.24;100.00
69257;BME280;56376;53.356;-1.748;2024-02-28T04:17:40;99664.25;;;3.23;100.00
69257;BME280;56376;53.356;-1.748;2024-02-28T04:20:12;99669.44;;;3.23;100.00
69257;BME280;56376;53.356;-1.748;2024-02-28T04:22:38;99666.84;;;3.21;100.00
69257;BME280;56376;53.356;-1.748;2024-02-28T04:25:05;99665.97;;;3.19;100.00
69257;BME280;56376;53.356;-1.748;2024-02-28T04:27:31;99660.81;;;3.19;100.00
69257;BME280;56376;53.356;-1.748;2024-02-28T04:29:56;99663.44;;;3.18;100.00
69257;BME280;56376;53.356;-1.748;2024-02-28T04:32:22;99649.66;;;3.14;100.00
69257;BME280;56376;53.356;-1.748;2024-02-28T04:34:47;99652.25;;;3.14;100.00
69257;BME280;56376;53.356;-1.748;2024-02-28T04:37:12;99638.47;;;3.14;100.00
69257;BME280;56376;53.356;-1.748;2024-02-28T04:39:38;99629.03;;;3.13;100.00
69257;BME280;56376;53.356;-1.748;2024-02-28T04:42:03;99633.34;;;3.11;100.00
69257;BME280;56376;53.356;-1.748;2024-02-28T04:44:29;99635.91;;;3.09;100.00
69257;BME280;56376;53.356;-1.748;2024-02-28T04:46:54;99635.94;;;3.08;100.00
69257;BME280;56376;53.356;-1.748;2024-02-28T04:49:20;99653.13;;;3.09;100.00
69257;BME280;56376;53.356;-1.748;2024-02-28T04:51:45;99660.03;;;3.08;100.00
69257;BME280;56376;53.356;-1.748;2024-02-28T04:54:11;99640.22;;;3.07;100.00
69257;BME280;56376;53.356;-1.748;2024-02-28T04:56:40;99641.09;;;3.06;100.00
69257;BME280;56376;53.356;-1.748;2024-02-28T04:59:07;99647.97;;;3.04;100.00
69257;BME280;56376;53.356;-1.748;2024-02-28T05:01:32;99647.13;;;3.03;100.00
69257;BME280;56376;53.356;-1.748;2024-02-28T05:03:58;99648.00;;;3.02;100.00
69257;BME280;56376;53.356;-1.748;2024-02-28T05:06:23;99646.28;;;3.01;100.00
69257;BME280;56376;53.356;-1.748;2024-02-28T05:08:49;99628.22;;;3.00;100.00
69257;BME280;56376;53.356;-1.748;2024-02-28T05:11:14;99631.66;;;3.00;100.00
69257;BME280;56376;53.356;-1.748;2024-02-28T05:13:40;99617.91;;;2.98;100.00
69257;BME280;56376;53.356;-1.748;2024-02-28T05:16:12;99615.31;;;2.98;100.00
69257;BME280;56376;53.356;-1.748;2024-02-28T05:18:38;99606.72;;;2.98;100.00
69257;BME280;56376;53.356;-1.748;2024-02-28T05:21:03;99604.16;;;2.96;100.00
69257;BME280;56376;53.356;-1.748;2024-02-28T05:23:29;99611.88;;;2.96;100.00
69257;BME280;56376;53.356;-1.748;2024-02-28T05:25:55;99611.88;;;2.96;100.00
69257;BME280;56376;53.356;-1.748;2024-02-28T05:28:22;99613.59;;;2.94;100.00
69257;BME280;56376;53.356;-1.748;2024-02-28T05:30:48;99611.91;;;2.93;100.00
69257;BME280;56376;53.356;-1.748;2024-02-28T05:33:13;99609.34;;;2.90;100.00
69257;BME280;56376;53.356;-1.748;2024-02-28T05:35:39;99606.75;;;2.90;100.00
69257;BME280;56376;53.356;-1.748;2024-02-28T05:38:04;99609.34;;;2.90;100.00
69257;BME280;56376;53.356;-1.748;2024-02-28T05:40:30;99610.16;;;2.92;100.00
69257;BME280;56376;53.356;-1.748;2024-02-28T05:42:55;99614.47;;;2.93;100.00
69257;BME280;56376;53.356;-1.748;2024-02-28T05:45:21;99610.16;;;2.92;100.00
69257;BME280;56376;53.356;-1.748;2024-02-28T05:47:46;99601.59;;;2.89;100.00
69257;BME280;56376;53.356;-1.748;2024-02-28T05:50:12;99605.88;;;2.91;100.00
69257;BME280;56376;53.356;-1.748;2024-02-28T05:52:38;99613.63;;;2.90;100.00
69257;BME280;56376;53.356;-1.748;2024-02-28T05:55:06;99609.31;;;2.87;100.00
69257;BME280;56376;53.356;-1.748;2024-02-28T05:57:32;99613.63;;;2.91;100.00
69257;BME280;56376;53.356;-1.748;2024-02-28T05:59:57;99594.72;;;2.88;100.00
69257;BME280;56376;53.356;-1.748;2024-02-28T06:02:23;99588.72;;;2.86;100.00
69257;BME280;56376;53.356;-1.748;2024-02-28T06:04:48;99598.16;;;2.87;100.00
69257;BME280;56376;53.356;-1.748;2024-02-28T06:07:14;99597.31;;;2.86;100.00
69257;BME280;56376;53.356;-1.748;2024-02-28T06:09:40;99593.00;;;2.88;100.00
69257;BME280;56376;53.356;-1.748;2024-02-28T06:12:05;99601.59;;;2.89;100.00
69257;BME280;56376;53.356;-1.748;2024-02-28T06:14:31;99590.44;;;2.88;100.00
69257;BME280;56376;53.356;-1.748;2024-02-28T06:16:56;99589.56;;;2.88;100.00
69257;BME280;56376;53.356;-1.748;2024-02-28T06:19:22;99587.84;;;2.88;100.00
69257;BME280;56376;53.356;-1.748;2024-02-28T06:21:47;99589.53;;;2.89;100.00
69257;BME280;56376;53.356;-1.748;2024-02-28T06:24:13;99581.84;;;2.88;100.00
69257;BME280;56376;53.356;-1.748;2024-02-28T06:26:38;99572.38;;;2.88;100.00
69257;BME280;56376;53.356;-1.748;2024-02-28T06:29:04;99573.22;;;2.90;100.00
69257;BME280;56376;53.356;-1.748;2024-02-28T06:31:31;99581.78;;;2.92;100.00
69257;BME280;56376;53.356;-1.748;2024-02-28T06:33:57;99578.38;;;2.93;100.00
69257;BME280;56376;53.356;-1.748;2024-02-28T06:36:23;99580.94;;;2.98;100.00
69257;BME280;56376;53.356;-1.748;2024-02-28T06:38:48;99586.06;;;2.99;100.00
69257;BME280;56376;53.356;-1.748;2024-02-28T06:41:14;99585.22;;;3.00;100.00
69257;BME280;56376;53.356;-1.748;2024-02-28T06:43:39;99578.34;;;3.02;100.00
69257;BME280;56376;53.356;-1.748;2024-02-28T06:46:05;99578.31;;;3.04;100.00
69257;BME280;56376;53.356;-1.748;2024-02-28T06:48:30;99576.56;;;3.06;100.00
69257;BME280;56376;53.356;-1.748;2024-02-28T06:50:56;99566.25;;;3.06;100.00
69257;BME280;56376;53.356;-1.748;2024-02-28T06:53:23;99568.84;;;3.06;100.00
69257;BME280;56376;53.356;-1.748;2024-02-28T06:55:48;99579.16;;;3.06;100.00
69257;BME280;56376;53.356;-1.748;2024-02-28T06:58:15;99581.75;;;3.03;100.00
69257;BME280;56376;53.356;-1.748;2024-02-28T07:00:41;99568.84;;;3.03;100.00
69257;BME280;56376;53.356;-1.748;2024-02-28T07:03:06;99573.16;;;3.06;100.00
69257;BME280;56376;53.356;-1.748;2024-02-28T07:05:32;99587.75;;;3.07;100.00
69257;BME280;56376;53.356;-1.748;2024-02-28T07:07:59;99581.75;;;3.08;100.00
69257;BME280;56376;53.356;-1.748;2024-02-28T07:10:25;99580.88;;;3.09;100.00
69257;BME280;56376;53.356;-1.748;2024-02-28T07:12:50;99575.69;;;3.09;100.00
69257;BME280;56376;53.356;-1.748;2024-02-28T07:15:16;99567.97;;;3.09;100.00
69257;BME280;56376;53.356;-1.748;2024-02-28T07:17:44;99569.66;;;3.11;100.00
69257;BME280;56376;53.356;-1.748;2024-02-28T07:20:10;99563.63;;;3.12;100.00
69257;BME280;56376;53.356;-1.748;2024-02-28T07:22:37;99565.38;;;3.10;100.00
69257;BME280;56376;53.356;-1.748;2024-02-28T07:25:03;99570.53;;;3.13;100.00
69257;BME280;56376;53.356;-1.748;2024-02-28T07:27:30;99571.38;;;3.14;100.00
69257;BME280;56376;53.356;-1.748;2024-02-28T07:29:55;99570.50;;;3.15;100.00
69257;BME280;56376;53.356;-1.748;2024-02-28T07:32:21;99567.06;;;3.14;100.00
69257;BME280;56376;53.356;-1.748;2024-02-28T07:34:46;99560.19;;;3.13;100.00
69257;BME280;56376;53.356;-1.748;2024-02-28T07:37:12;99567.94;;;3.13;100.00
69257;BME280;56376;53.356;-1.748;2024-02-28T07:39:37;99565.34;;;3.13;100.00
69257;BME280;56376;53.356;-1.748;2024-02-28T07:42:03;99574.81;;;3.16;100.00
69257;BME280;56376;53.356;-1.748;2024-02-28T07:44:29;99563.59;;;3.17;100.00
69257;BME280;56376;53.356;-1.748;2024-02-28T07:46:59;99569.63;;;3.17;100.00
69257;BME280;56376;53.356;-1.748;2024-02-28T07:49:25;99561.00;;;3.21;100.00
69257;BME280;56376;53.356;-1.748;2024-02-28T07:51:51;99543.78;;;3.22;100.00
69257;BME280;56376;53.356;-1.748;2024-02-28T07:54:16;99553.25;;;3.23;100.00
69257;BME280;56376;53.356;-1.748;2024-02-28T07:56:43;99550.66;;;3.24;100.00
69257;BME280;56376;53.356;-1.748;2024-02-28T07:59:09;99548.94;;;3.28;100.00
69257;BME280;56376;53.356;-1.748;2024-02-28T08:01:34;99540.31;;;3.29;100.00
69257;BME280;56376;53.356;-1.748;2024-02-28T08:04:00;99543.75;;;3.33;100.00
69257;BME280;56376;53.356;-1.748;2024-02-28T08:06:27;99551.44;;;3.34;100.00
69257;BME280;56376;53.356;-1.748;2024-02-28T08:08:52;99558.34;;;3.34;100.00
69257;BME280;56376;53.356;-1.748;2024-02-28T08:11:18;99554.91;;;3.33;100.00
69257;BME280;56376;53.356;-1.748;2024-02-28T08:13:44;99566.09;;;3.35;100.00
69257;BME280;56376;53.356;-1.748;2024-02-28T08:16:10;99550.59;;;3.35;100.00
69257;BME280;56376;53.356;-1.748;2024-02-28T08:18:36;99558.31;;;3.37;100.00
69257;BME280;56376;53.356;-1.748;2024-02-28T08:21:01;99560.91;;;3.38;100.00
69257;BME280;56376;53.356;-1.748;2024-02-28T08:23:29;99548.00;;;3.38;100.00
69257;BME280;56376;53.356;-1.748;2024-02-28T08:25:55;99536.78;;;3.39;100.00
69257;BME280;56376;53.356;-1.748;2024-02-28T08:28:20;99548.81;;;3.42;100.00
69257;BME280;56376;53.356;-1.748;2024-02-28T08:30:46;99535.06;;;3.41;100.00
69257;BME280;56376;53.356;-1.748;2024-02-28T08:33:11;99536.75;;;3.45;100.00
69257;BME280;56376;53.356;-1.748;2024-02-28T08:35:37;99535.88;;;3.46;100.00
69257;BME280;56376;53.356;-1.748;2024-02-28T08:38:03;99539.28;;;3.50;100.00
69257;BME280;56376;53.356;-1.748;2024-02-28T08:40:29;99537.56;;;3.54;100.00
69257;BME280;56376;53.356;-1.748;2024-02-28T08:42:55;99534.09;;;3.56;100.00
69257;BME280;56376;53.356;-1.748;2024-02-28T08:45:24;99544.38;;;3.61;100.00
69257;BME280;56376;53.356;-1.748;2024-02-28T08:47:50;99530.56;;;3.65;100.00
69257;BME280;56376;53.356;-1.748;2024-02-28T08:50:15;99529.72;;;3.66;100.00
69257;BME280;56376;53.356;-1.748;2024-02-28T08:52:41;99534.00;;;3.68;100.00
69257;BME280;56376;53.356;-1.748;2024-02-28T08:55:07;99523.63;;;3.72;100.00
69257;BME280;56376;53.356;-1.748;2024-02-28T08:57:32;99526.19;;;3.75;100.00
69257;BME280;56376;53.356;-1.748;2024-02-28T08:59:59;99517.53;;;3.77;100.00
69257;BME280;56376;53.356;-1.748;2024-02-28T09:02:24;99516.66;;;3.80;100.00
69257;BME280;56376;53.356;-1.748;2024-02-28T09:04:50;99516.66;;;3.81;100.00
69257;BME280;56376;53.356;-1.748;2024-02-28T09:07:18;99511.44;;;3.86;100.00
69257;BME280;56376;53.356;-1.748;2024-02-28T09:09:47;99502.81;;;3.87;100.00
69257;BME280;56376;53.356;-1.748;2024-02-28T09:12:13;99501.94;;;3.89;100.00
69257;BME280;56376;53.356;-1.748;2024-02-28T09:14:39;99519.97;;;3.93;100.00
69257;BME280;56376;53.356;-1.748;2024-02-28T09:17:04;99514.81;;;3.93;100.00
69257;BME280;56376;53.356;-1.748;2024-02-28T09:19:30;99499.31;;;3.93;100.00
69257;BME280;56376;53.356;-1.748;2024-02-28T09:21:56;99507.03;;;3.97;100.00
69257;BME280;56376;53.356;-1.748;2024-02-28T09:24:23;99503.56;;;4.00;100.00
69257;BME280;56376;53.356;-1.748;2024-02-28T09:26:49;99488.03;;;4.00;100.00
69257;BME280;56376;53.356;-1.748;2024-02-28T09:29:14;99487.19;;;4.01;100.00
69257;BME280;56376;53.356;-1.748;2024-02-28T09:31:39;99488.00;;;4.04;100.00
69257;BME280;56376;53.356;-1.748;2024-02-28T09:34:05;99474.19;;;4.05;100.00
69257;BME280;56376;53.356;-1.748;2024-02-28T09:36:42;99476.78;;;4.05;100.00
69257;BME280;56376;53.356;-1.748;2024-02-28T09:39:08;99472.44;;;4.07;100.00
69257;BME280;56376;53.356;-1.748;2024-02-28T09:41:34;99471.59;;;4.08;100.00
69257;BME280;56376;53.356;-1.748;2024-02-28T09:44:00;99475.00;;;4.10;100.00
69257;BME280;56376;53.356;-1.748;2024-02-28T09:46:28;99462.06;;;4.12;100.00
69257;BME280;56376;53.356;-1.748;2024-02-28T09:48:54;99479.28;;;4.13;100.00
69257;BME280;56376;53.356;-1.748;2024-02-28T09:51:21;99481.00;;;4.12;100.00
69257;BME280;56376;53.356;-1.748;2024-02-28T09:53:47;99475.00;;;4.12;100.00
69257;BME280;56376;53.356;-1.748;2024-02-28T09:56:14;99469.78;;;4.15;100.00
69257;BME280;56376;53.356;-1.748;2024-02-28T09:58:40;99461.19;;;4.15;100.00
69257;BME280;56376;53.356;-1.748;2024-02-28T10:01:08;99447.34;;;4.16;100.00
69257;BME280;56376;53.356;-1.748;2024-02-28T10:03:37;99443.00;;;4.22;100.00
69257;BME280;56376;53.356;-1.748;2024-02-28T10:06:05;99438.66;;;4.24;100.00
69257;BME280;56376;53.356;-1.748;2024-02-28T10:08:30;99430.00;;;4.25;100.00
69257;BME280;56376;53.356;-1.748;2024-02-28T10:10:56;99428.28;;;4.27;100.00
69257;BME280;56376;53.356;-1.748;2024-02-28T10:13:23;99419.63;;;4.30;100.00
69257;BME280;56376;53.356;-1.748;2024-02-28T10:15:52;99423.91;;;4.34;100.00
69257;BME280;56376;53.356;-1.748;2024-02-28T10:18:17;99424.72;;;4.36;100.00
69257;BME280;56376;53.356;-1.748;2024-02-28T10:20:43;99407.44;;;4.38;100.00
69257;BME280;56376;53.356;-1.748;2024-02-28T10:23:08;99413.47;;;4.40;100.00
69257;BME280;56376;53.356;-1.748;2024-02-28T10:25:45;99396.19;;;4.44;100.00
69257;BME280;56376;53.356;-1.748;2024-02-28T10:28:11;99408.16;;;4.49;100.00
69257;BME280;56376;53.356;-1.748;2024-02-28T10:30:42;99402.88;;;4.59;100.00
69257;BME280;56376;53.356;-1.748;2024-02-28T10:33:11;99403.69;;;4.62;100.00
69257;BME280;56376;53.356;-1.748;2024-02-28T10:35:38;99410.44;;;4.71;100.00
69257;BME280;56376;53.356;-1.748;2024-02-28T10:38:04;99402.63;;;4.75;100.00
69257;BME280;56376;53.356;-1.748;2024-02-28T10:40:30;99413.75;;;4.82;100.00
69257;BME280;56376;53.356;-1.748;2024-02-28T10:42:57;99399.06;;;4.83;100.00
69257;BME280;56376;53.356;-1.748;2024-02-28T10:45:24;99396.38;;;4.89;100.00
69257;BME280;56376;53.356;-1.748;2024-02-28T10:47:54;99398.09;;;4.90;100.00
69257;BME280;56376;53.356;-1.748;2024-02-28T10:50:20;99406.66;;;4.93;100.00
69257;BME280;56376;53.356;-1.748;2024-02-28T10:52:46;99395.47;;;4.93;100.00
69257;BME280;56376;53.356;-1.748;2024-02-28T10:55:20;99390.22;;;4.96;100.00
69257;BME280;56376;53.356;-1.748;2024-02-28T10:58:03;99384.19;;;4.97;100.00
69257;BME280;56376;53.356;-1.748;2024-02-28T11:00:30;99390.16;;;5.02;100.00
69257;BME280;56376;53.356;-1.748;2024-02-28T11:02:57;99384.13;;;5.02;100.00
69257;BME280;56376;53.356;-1.748;2024-02-28T11:05:37;99389.25;;;5.05;100.00
69257;BME280;56376;53.356;-1.748;2024-02-28T11:08:09;99390.03;;;5.08;100.00
69257;BME280;56376;53.356;-1.748;2024-02-28T11:10:40;99388.28;;;5.10;100.00
69257;BME280;56376;53.356;-1.748;2024-02-28T11:13:21;99386.47;;;5.14;100.00
69257;BME280;56376;53.356;-1.748;2024-02-28T11:15:47;99384.78;;;5.14;100.00
69257;BME280;56376;53.356;-1.748;2024-02-28T11:18:12;99380.50;;;5.12;100.00
69257;BME280;56376;53.356;-1.748;2024-02-28T11:20:38;99393.31;;;5.19;100.00
69257;BME280;56376;53.356;-1.748;2024-02-28T11:23:06;99386.34;;;5.21;100.00
69257;BME280;56376;53.356;-1.748;2024-02-28T11:25:31;99374.22;;;5.25;100.00
69257;BME280;56376;53.356;-1.748;2024-02-28T11:27:57;99362.94;;;5.29;100.00
69257;BME280;56376;53.356;-1.748;2024-02-28T11:30:22;99348.19;;;5.33;100.00
69257;BME280;56376;53.356;-1.748;2024-02-28T11:32:54;99346.34;;;5.39;100.00
69257;BME280;56376;53.356;-1.748;2024-02-28T11:35:20;99343.63;;;5.47;100.00
69257;BME280;56376;53.356;-1.748;2024-02-28T11:37:47;99335.66;;;5.56;100.00
69257;BME280;56376;53.356;-1.748;2024-02-28T11:40:13;99330.28;;;5.67;100.00
69257;BME280;56376;53.356;-1.748;2024-02-28T11:42:38;99323.91;;;5.82;100.00
69257;BME280;56376;53.356;-1.748;2024-02-28T11:45:10;99315.00;;;5.97;100.00
69257;BME280;56376;53.356;-1.748;2024-02-28T11:47:36;99304.28;;;6.14;100.00
69257;BME280;56376;53.356;-1.748;2024-02-28T11:50:02;99296.16;;;6.31;100.00
69257;BME280;56376;53.356;-1.748;2024-02-28T11:52:31;99311.19;;;6.52;100.00
69257;BME280;56376;53.356;-1.748;2024-02-28T11:54:57;99303.03;;;6.69;100.00
69257;BME280;56376;53.356;-1.748;2024-02-28T11:57:23;99293.28;;;6.79;100.00
69257;BME280;56376;53.356;-1.748;2024-02-28T11:59:48;99285.22;;;6.89;100.00
69257;BME280;56376;53.356;-1.748;2024-02-28T12:02:15;99290.22;;;6.97;100.00
69257;BME280;56376;53.356;-1.748;2024-02-28T12:04:45;99275.34;;;7.04;100.00
69257;BME280;56376;53.356;-1.748;2024-02-28T12:07:11;99282.13;;;7.08;100.00
69257;BME280;56376;53.356;-1.748;2024-02-28T12:09:37;99265.59;;;7.12;100.00
69257;BME280;56376;53.356;-1.748;2024-02-28T12:12:06;99262.81;;;7.18;100.00
69257;BME280;56376;53.356;-1.748;2024-02-28T12:14:32;99260.06;;;7.24;100.00
69257;BME280;56376;53.356;-1.748;2024-02-28T12:16:58;99256.53;;;7.27;100.00
69257;BME280;56376;53.356;-1.748;2024-02-28T12:19:24;99242.53;;;7.32;100.00
69257;BME280;56376;53.356;-1.748;2024-02-28T12:21:49;99229.38;;;7.39;100.00
69257;BME280;56376;53.356;-1.748;2024-02-28T12:24:15;99228.28;;;7.46;100.00
69257;BME280;56376;53.356;-1.748;2024-02-28T12:26:40;99224.69;;;7.51;100.00
69257;BME280;56376;53.356;-1.748;2024-02-28T12:29:07;99214.94;;;7.58;100.00
69257;BME280;56376;53.356;-1.748;2024-02-28T12:31:32;99193.41;;;7.54;100.00
69257;BME280;56376;53.356;-1.748;2024-02-28T12:33:58;99214.91;;;7.59;100.00
69257;BME280;56376;53.356;-1.748;2024-02-28T12:36:24;99195.03;;;7.58;100.00
69257;BME280;56376;53.356;-1.748;2024-02-28T12:38:50;99189.63;;;7.65;100.00
69257;BME280;56376;53.356;-1.748;2024-02-28T12:41:16;99176.63;;;7.65;100.00
69257;BME280;56376;53.356;-1.748;2024-02-28T12:43:42;99184.28;;;7.69;100.00
69257;BME280;56376;53.356;-1.748;2024-02-28T12:46:08;99183.22;;;7.76;100.00